Flight Track Log - Related Links

Times and Time Zones

All times are in EST time to prevent confusion due to time zone crossing. See the OPT438 flight status page for this flight to view local times or setup timezone preferences in your user account.

Time Position Orientation Groundspeed Altitude Reporting Facility
EST Latitude Longitude Course Direction KTS MPH feet Rate Location/Type
Thu 12:16:15 PM 42.1797 -89.0492 199° South 206 237 33,000  Level Chicago Center
Thu 12:17:16 PM 42.1283 -89.0733 199° South 211 243 5,900 -11,854 Descending Chicago Center
Thu 12:18:18 PM 42.0600 -89.1236 209° Southwest 229 264 8,700 3,339 Climbing Chicago Center
Thu 12:19:20 PM 42.0008 -89.1708 211° Southwest 249 287 12,800 3,707 Climbing Chicago Center
Thu 12:20:21 PM 41.9497 -89.2125 211° Southwest 215 247 16,300 2,976 Climbing Chicago Center
Thu 12:21:23 PM 41.8936 -89.2581 211° Southwest 233 268 18,900 2,371 Climbing Chicago Center
Thu 12:22:25 PM 41.8350 -89.3050 211° Southwest 243 280 21,200 2,146 Climbing Chicago Center
Thu 12:23:26 PM 41.7744 -89.3553 212° Southwest 254 292 23,300 2,195 Climbing Chicago Center
Thu 12:24:28 PM 41.7094 -89.3917 203° Southwest 257 296 25,700 2,049 Climbing Chicago Center
Thu 12:25:29 PM 41.6375 -89.3633 164° South 272 313 27,500 1,756 Climbing Chicago Center
Thu 12:26:31 PM 41.5719 -89.2767 135° Southeast 321 369 29,300 1,839 Climbing Chicago Center
Thu 12:27:33 PM 41.4936 -89.1683 134° Southeast 336 387 31,300 1,659 Climbing Chicago Center
Thu 12:28:34 PM 41.4269 -89.0767 134° Southeast 342 394 32,700 829 Climbing Chicago Center
Thu 12:29:36 PM 41.3556 -88.9783 134° Southeast 363 418 33,000 145 Climbing Chicago Center
Thu 12:30:38 PM 41.2761 -88.8708 135° Southeast 399 459 33,000 390 Level Chicago Center
Thu 12:31:39 PM 41.1989 -88.7639 134° Southeast 401 461 33,800 976 Climbing Chicago Center
Thu 12:32:41 PM 41.1219 -88.6589 134° Southeast 396 456 35,000 581 Climbing Chicago Center
Thu 12:33:43 PM 41.0439 -88.5531 134° Southeast 398 458 35,000  Level Chicago Center
Thu 12:34:44 PM 40.9647 -88.4464 134° Southeast 405 466 35,000  Level Chicago Center
Thu 12:35:46 PM 40.8856 -88.3403 135° Southeast 405 466 35,000  Level Chicago Center
Thu 12:36:48 PM 40.7903 -88.2139 135° Southeast 403 464 35,000 -98 Level Chicago Center
Thu 12:37:49 PM 40.7114 -88.1086 135° Southeast 404 465 34,800 -244 Descending Chicago Center
Thu 12:38:51 PM 40.6164 -88.0439 153° Southeast 393 452 34,500 -145 Descending Chicago Center
Thu 12:39:53 PM 40.5300 -87.9697 147° Southeast 394 453 34,500 -49 Level Chicago Center
Thu 12:40:54 PM 40.4417 -87.8919 146° Southeast 383 441 34,400 -732 Descending Chicago Center
Thu 12:41:56 PM 40.3536 -87.8308 152° Southeast 361 415 33,000 -1,452 Descending Chicago Center
Thu 12:42:58 PM 40.2675 -87.7744 153° Southeast 355 409 31,400 -1,742 Descending Chicago Center
Thu 12:44:00 PM 40.1717 -87.7083 152° Southeast 331 381 29,400 -1,714 Descending Chicago Center
Thu 12:45:04 PM 40.0933 -87.6556 153° Southeast 322 371 27,800 -1,171 Descending Indianapolis Center
Thu 12:46:03 PM 40.0175 -87.6053 153° Southeast 312 359 27,000 -397 Descending Chicago Center
Thu 12:47:05 PM 39.9422 -87.5536 152° Southeast 307 353 27,000 -97 Level Chicago Center
Thu 12:48:07 PM 39.8664 -87.5031 153° Southeast 308 354 26,800 -435 Descending Chicago Center
Thu 12:49:09 PM 39.7917 -87.4519 152° Southeast 306 352 26,100 -714 Descending Chicago Center
Thu 12:50:13 PM 39.7006 -87.3900 152° Southeast 307 353 25,300 -720 Descending Indianapolis Center
Thu 12:51:14 PM 39.6236 -87.3397 153° Southeast 307 353 24,600 -732 Descending Indianapolis Center
Thu 12:52:16 PM 39.5486 -87.2889 152° Southeast 307 353 23,800 -726 Descending Indianapolis Center
Thu 12:53:18 PM 39.4719 -87.2422 155° Southeast 308 354 23,100 -387 Descending Indianapolis Center
Thu 12:54:20 PM 39.3942 -87.2083 161° South 301 346 23,000 -49 Descending Indianapolis Center
Thu 12:55:21 PM 39.2997 -87.1672 161° South 301 346 23,000  Level Indianapolis Center
Thu 12:56:23 PM 39.2206 -87.1331 162° South 301 346 23,000  Level Indianapolis Center
Thu 12:57:25 PM 39.1408 -87.0992 162° South 301 346 23,000  Level Indianapolis Center
Thu 12:58:27 PM 39.0633 -87.0664 162° South 301 346 23,000  Level Indianapolis Center
Thu 12:59:29 PM 38.9831 -87.0322 162° South 301 346 23,000  Level Indianapolis Center
Thu 01:00:30 PM 38.9022 -86.9978 162° South 301 346 23,000  Level Indianapolis Center
Thu 01:01:32 PM 38.8056 -86.9558 161° South 301 346 23,000  Level Indianapolis Center
Thu 01:02:34 PM 38.7247 -86.9217 162° South 302 348 23,000  Level Indianapolis Center
Thu 01:03:36 PM 38.6425 -86.8875 162° South 303 349 23,000  Level Indianapolis Center
Thu 01:04:38 PM 38.5622 -86.8522 161° South 303 349 23,000 -823 Level Indianapolis Center
Thu 01:05:40 PM 38.4831 -86.8189 162° South 300 345 21,300 -1,805 Descending Indianapolis Center
Thu 01:06:41 PM 38.4097 -86.7878 162° South 282 325 19,300 -2,000 Descending Indianapolis Center
Thu 01:07:43 PM 38.3411 -86.7586 162° South 262 302 17,200 -1,790 Descending Indianapolis Center
Thu 01:08:45 PM 38.2775 -86.7319 162° South 244 281 15,600 -1,742 Descending Indianapolis Center
Thu 01:09:47 PM 38.2469 -86.6431 114° Southeast 288 331 13,600 -2,032 Descending Indianapolis Center
Thu 01:10:49 PM 38.2331 -86.5344 99° East 306 352 11,400 -1,887 Descending Indianapolis Center
Thu 01:11:51 PM 38.2533 -86.4047 79° East 310 357 9,700 -1,366 Descending Indianapolis Center
Thu 01:12:52 PM 38.2747 -86.3036 75° East 292 336 8,600 -976 Descending Indianapolis Center
Thu 01:13:54 PM 38.2933 -86.2111 76° East 285 328 7,700 -871 Descending Indianapolis Center
Thu 01:14:56 PM 38.3128 -86.1133 76° East 284 327 6,800 -871 Descending Indianapolis Center
Thu 01:15:58 PM 38.3333 -86.0178 75° East 283 326 5,900 -823 Descending Indianapolis Center
Thu 01:17:00 PM 38.3525 -85.9256 75° East 275 316 5,100 -823 Descending Indianapolis Center
Thu 01:18:02 PM 38.3678 -85.8375 77° East 264 304 4,200 -1,024 Descending Indianapolis Center
Thu 01:19:03 PM 38.3253 -85.7761 131° Southeast 212 244 3,000 -780 Descending Indianapolis Center
Thu 01:20:05 PM 38.2881 -85.7628 164° South 170 196 2,600 -387 Descending Indianapolis Center
Thu 01:21:07 PM 38.2553 -85.7578 173° South 158 182 2,200 -616 Descending Indianapolis Center
Thu 01:23:10 PM 38.2000 -85.7333 161° South 102 117 700 -732 Descending Louisville TRACON
Thu 01:25:00 PM 38.1741 -85.7365 127° Southeast  Level Estimated

Login

Don't have an account? Register now (free) for customized features, flight alerts, and more!